• Join FlightAware (Why Join?)
  • Login
  • US Flag 
01:53PM EDT


 

Airport Tracker/Info


-or-


 

Live Flight TrackerFlight Track Log ✈ AAL1292 ✈ 07-May-2013 ✈ KDFW - KBNA

Flight Track Log - Related Links

Times and Time Zones

All times are in EDT time to prevent confusion due to time zone crossing. See the AAL1292 flight status page for this flight to view local times or setup timezone preferences in your user account.

Time Position Orientation Groundspeed Altitude Reporting Facility
EDT Latitude Longitude Course Direction KTS MPH feet Rate Location/Type
03:46PM 32.8833 -97.0333 64° Northeast 166 191 1,400  Level Dallas / Fort Worth TRACON
03:47PM 32.8333 -97.0167 164° South 230 265 3,400 2,280 Climbing Dallas / Fort Worth TRACON
03:48PM 32.7667 -96.9667 148° Southeast 268 308 6,000 2,640 Climbing Dallas / Fort Worth TRACON
03:49PM 32.7963 -96.7278 68° East  Level FlightAware Approximate
03:49PM 32.7667 -96.8833 90° East 292 336 8,700  Level Dallas / Fort Worth TRACON
03:50PM 32.8460 -96.6022 62° Northeast  Level FlightAware Approximate
03:51PM 32.9015 -96.4796 64° Northeast  Level FlightAware Approximate
03:51PM 32.8147 -96.7189 71° East 304 350 11,400  Level Fort Worth Center
03:52PM 32.8664 -96.6022 62° Northeast 342 394 13,900 2,400 Climbing Fort Worth Center
03:53PM 32.9114 -96.4831 66° East 378 435 16,200 2,100 Climbing Fort Worth Center
03:54PM 32.9583 -96.3636 65° Northeast 393 452 18,200 2,040 Climbing Fort Worth Center
03:55PM 32.9864 -96.2272 76° East 411 473 20,300 1,800 Climbing Fort Worth Center
03:56PM 33.0058 -96.0856 81° East 422 486 21,900 1,680 Climbing Fort Worth Center
03:57PM 33.0250 -95.9367 81° East 445 512 23,700 1,500 Climbing Fort Worth Center
03:58PM 33.0464 -95.7900 80° East 450 518 25,000 1,440 Climbing Fort Worth Center
03:59PM 33.0672 -95.6336 81° East 466 536 26,600 1,440 Climbing Fort Worth Center
04:00PM 33.0961 -95.4792 77° East 473 544 27,900 1,020 Climbing Fort Worth Center
04:01PM 33.1439 -95.3319 69° East 473 544 28,700 540 Climbing Fort Worth Center
04:02PM 33.1853 -95.1819 72° East 473 544 29,000 120 Climbing Fort Worth Center
04:03PM 33.2325 -95.0342 69° East 468 539 29,000  Level Fort Worth Center
04:04PM 33.2778 -94.8864 70° East 468 539 29,000  Level Fort Worth Center
04:05PM 33.3206 -94.7336 71° East 468 539 29,000  Level Fort Worth Center
04:06PM 33.3653 -94.5881 70° East 468 539 29,000  Level Fort Worth Center
04:07PM 33.4097 -94.4372 71° East 468 539 29,000  Level Fort Worth Center
04:08PM 33.4542 -94.2889 70° East 468 539 29,000  Level Fort Worth Center
04:09PM 33.4964 -94.1381 71° East 468 539 29,000  Level Fort Worth Center
04:10PM 33.5428 -94.0067 67° East 468 539 29,000  Level Fort Worth Center
04:11PM 33.5994 -93.8622 65° Northeast 468 539 29,000  Level Fort Worth Center
04:12PM 33.6536 -93.7203 65° Northeast 468 539 29,000  Level Fort Worth Center
04:13PM 33.7078 -93.5783 65° Northeast 463 533 29,000  Level Fort Worth Center
04:14PM 33.7619 -93.4386 65° Northeast 463 533 29,000  Level Fort Worth Center
04:14PM 33.7944 -93.3567 64° Northeast 465 535 29,000  Level Memphis Center
04:15PM 33.8481 -93.2133 66° East 465 535 29,000  Level Memphis Center
04:16PM 33.9011 -93.0725 66° East 460 529 29,000  Level Memphis Center
04:17PM 33.9564 -92.9292 65° Northeast 460 529 29,000  Level Memphis Center
04:18PM 34.0114 -92.7928 64° Northeast 454 522 29,000  Level Memphis Center
04:19PM 34.0619 -92.6489 67° East 454 522 29,000  Level Memphis Center
04:20PM 34.1061 -92.5194 68° East 454 522 29,000  Level Memphis Center
04:21PM 34.1586 -92.3778 66° East 454 522 29,000  Level Memphis Center
04:22PM 34.2108 -92.2333 66° East 459 528 29,000  Level Memphis Center
04:23PM 34.2650 -92.0939 65° Northeast 454 522 29,000  Level Memphis Center
04:24PM 34.3169 -91.9539 66° East 454 522 29,000  Level Memphis Center
04:25PM 34.3667 -91.8114 67° East 454 522 29,000  Level Memphis Center
04:26PM 34.4183 -91.6614 67° East 449 517 29,000  Level Memphis Center
04:27PM 34.4742 -91.5211 64° Northeast 449 517 29,000  Level Memphis Center
04:28PM 34.5233 -91.3831 67° East 454 522 29,000  Level Memphis Center
04:29PM 34.5767 -91.2375 66° East 454 522 29,000  Level Memphis Center
04:30PM 34.6275 -91.0967 66° East 454 522 29,000  Level Memphis Center
04:31PM 34.6764 -90.9556 67° East 454 522 29,000  Level Memphis Center
04:32PM 34.7269 -90.8169 66° East 454 522 29,000  Level Memphis Center
04:33PM 34.7711 -90.6908 67° East 454 522 29,000  Level Memphis Center
04:34PM 34.8194 -90.5519 67° East 449 517 29,000 -240 Level Memphis Center
04:35PM 34.8675 -90.4128 67° East 449 517 28,600 -720 Descending Memphis Center
04:36PM 34.9197 -90.2711 66° East 449 517 27,600 -840 Descending Memphis Center
04:37PM 34.9675 -90.1264 68° East 456 525 27,000 -300 Descending Memphis Center
04:38PM 35.0214 -89.9717 67° East 456 525 27,000  Level Memphis Center
04:39PM 35.0731 -89.8267 66° East 456 525 27,000  Level Memphis Center
04:40PM 35.1203 -89.6819 68° East 456 525 27,000  Level Memphis Center
04:41PM 35.1672 -89.5392 68° East 456 525 27,000 -540 Level Memphis Center
04:42PM 35.2081 -89.4142 68° East 451 519 26,000 -1,140 Descending Memphis Center
04:43PM 35.2528 -89.2739 69° East 446 513 24,800 -960 Descending Memphis Center
04:44PM 35.2975 -89.1383 68° East 432 497 24,100 -420 Descending Memphis Center
04:45PM 35.3419 -89.0028 68° East 426 490 24,000 -60 Descending Memphis Center
04:46PM 35.3864 -88.8697 68° East 426 490 24,000  Level Memphis Center
04:47PM 35.4325 -88.7211 69° East 426 490 24,000  Level Memphis Center
04:48PM 35.4764 -88.5878 68° East 426 490 24,000 -180 Level Memphis Center
04:49PM 35.5183 -88.4517 69° East 421 484 23,700 -720 Descending Memphis Center
04:50PM 35.5619 -88.3178 68° East 421 484 22,600 -1,020 Descending Memphis Center
04:51PM 35.6078 -88.1839 67° East 414 476 21,700 -900 Descending Memphis Center
04:52PM 35.6472 -88.0603 69° East 407 468 20,800 -1,200 Descending Memphis Center
04:53PM 35.6864 -87.9314 69° East 402 463 19,300 -1,500 Descending Memphis Center
04:55PM 35.7220 -87.7902 71° East  Level FlightAware Approximate
04:55PM 35.7606 -87.6836 71° East 386 444 16,300  Level Memphis Center
04:56PM 35.7997 -87.5622 68° East 379 436 14,800 -1,560 Descending Memphis Center
04:57PM 35.8367 -87.4508 68° East 366 421 13,200 -1,680 Descending Memphis Center
04:58PM 35.8781 -87.3442 64° Northeast 346 398 11,500 -1,440 Descending Memphis Center
04:59PM 35.9089 -87.2483 68° East 314 361 10,400 -1,320 Descending Memphis Center
05:00PM 35.9253 -87.1528 78° East 287 330 8,900 -1,560 Descending Memphis Center
05:01PM 35.9353 -87.0550 83° East 281 323 7,300 -1,500 Descending Memphis Center
05:02PM 35.9264 -86.9631 97° East 269 310 5,900 -1,080 Descending Memphis Center
05:03PM 35.9075 -86.8819 106° East 258 297 5,200 -900 Descending Memphis Center
05:04PM 35.8953 -86.8131 102° East 242 278 4,100 -900 Descending Memphis Center
05:05PM 35.9311 -86.7553 53° Northeast 197 227 3,400 -720 Descending Memphis Center